createdAt,value
2019-03-31T00:00:00.469Z,10.05
2019-03-31T00:01:58.969Z,8.63
2019-03-31T00:03:31.754Z,9.10
2019-03-31T00:05:04.529Z,9.80
2019-03-31T00:06:37.353Z,10.28
2019-03-31T00:08:10.020Z,8.70
2019-03-31T00:09:42.690Z,9.15
2019-03-31T00:11:15.553Z,9.33
2019-03-31T00:12:48.343Z,8.58
2019-03-31T00:14:21.144Z,9.35
2019-03-31T00:15:53.872Z,10.08
2019-03-31T00:17:26.720Z,8.90
2019-03-31T00:18:59.367Z,8.75
2019-03-31T00:20:32.166Z,8.98
2019-03-31T00:22:04.959Z,9.40
2019-03-31T00:23:37.759Z,9.10
2019-03-31T00:25:10.436Z,8.58
2019-03-31T00:26:43.237Z,8.50
2019-03-31T00:28:16.767Z,9.35
2019-03-31T00:29:49.556Z,9.65
2019-03-31T00:31:22.846Z,9.65
2019-03-31T00:32:55.716Z,9.95
2019-03-31T00:34:28.557Z,8.90
2019-03-31T00:36:01.350Z,9.75
2019-03-31T00:37:34.074Z,8.08
2019-03-31T00:39:07.882Z,8.75
2019-03-31T00:40:40.705Z,9.70
2019-03-31T00:42:13.507Z,8.75
2019-03-31T00:43:46.235Z,9.00
2019-03-31T00:45:19.025Z,10.68
2019-03-31T00:46:51.692Z,11.22
2019-03-31T00:48:24.393Z,8.50
2019-03-31T00:49:57.019Z,11.63
2019-03-31T00:51:29.691Z,9.13
2019-03-31T00:53:02.519Z,9.58
2019-03-31T00:54:35.171Z,9.68
2019-03-31T00:56:07.966Z,9.30
2019-03-31T00:57:40.756Z,9.68
2019-03-31T00:59:13.571Z,10.60
2019-03-31T01:01:04.578Z,11.05
2019-03-31T01:02:37.616Z,8.88
2019-03-31T01:04:10.491Z,10.68
2019-03-31T01:05:43.573Z,9.83
2019-03-31T01:07:16.289Z,9.93
2019-03-31T01:08:49.406Z,9.63
2019-03-31T01:10:22.829Z,10.28
2019-03-31T01:11:55.810Z,11.63
2019-03-31T01:13:28.565Z,10.20
2019-03-31T01:15:03.109Z,11.20
2019-03-31T01:16:36.014Z,11.68
2019-03-31T01:18:09.169Z,10.78
2019-03-31T01:19:42.221Z,10.05
2019-03-31T01:21:15.276Z,9.93
2019-03-31T01:22:48.064Z,9.18
2019-03-31T01:24:20.840Z,12.13
2019-03-31T01:25:53.478Z,10.80
2019-03-31T01:27:26.457Z,12.00
2019-03-31T01:28:59.589Z,11.88
2019-03-31T01:30:32.421Z,12.47
2019-03-31T01:32:05.258Z,9.80
2019-03-31T01:33:38.152Z,10.90
2019-03-31T01:35:11.824Z,10.53
2019-03-31T01:36:44.717Z,10.13
2019-03-31T01:38:18.104Z,11.45
2019-03-31T01:39:50.950Z,10.23
2019-03-31T01:41:23.675Z,10.82
2019-03-31T01:42:56.443Z,11.60
2019-03-31T01:44:29.217Z,10.48
2019-03-31T01:46:02.097Z,11.28
2019-03-31T01:47:35.114Z,11.08
2019-03-31T01:49:07.939Z,9.80
2019-03-31T01:50:40.728Z,10.48
2019-03-31T01:52:13.514Z,11.22
2019-03-31T01:53:46.323Z,11.03
2019-03-31T01:55:19.161Z,11.12
2019-03-31T01:56:51.973Z,10.43
2019-03-31T01:58:24.613Z,10.35
2019-03-31T01:59:57.377Z,10.20
2019-03-31T02:01:30.261Z,11.97
2019-03-31T02:03:03.194Z,11.60
2019-03-31T02:04:35.892Z,10.82
2019-03-31T02:06:08.576Z,12.07
2019-03-31T02:07:41.426Z,10.00
2019-03-31T02:09:14.224Z,10.93
2019-03-31T02:10:47.002Z,11.38
2019-03-31T02:12:20.521Z,12.23
2019-03-31T02:13:53.253Z,11.48
2019-03-31T02:15:26.040Z,12.80
2019-03-31T02:16:58.825Z,9.83
2019-03-31T02:18:31.648Z,11.63
2019-03-31T02:20:05.165Z,11.28
2019-03-31T02:21:38.026Z,10.65
2019-03-31T02:23:10.831Z,10.85
2019-03-31T02:24:43.667Z,11.45
2019-03-31T02:26:16.603Z,12.50
2019-03-31T02:27:49.447Z,9.75
2019-03-31T02:29:22.118Z,9.78
2019-03-31T02:30:54.871Z,13.08
2019-03-31T02:32:27.708Z,11.30
2019-03-31T02:34:00.348Z,10.63
2019-03-31T02:35:33.014Z,10.95
2019-03-31T02:37:05.743Z,9.98
2019-03-31T02:38:38.436Z,11.05
2019-03-31T02:40:11.225Z,10.68
2019-03-31T02:41:44.072Z,10.53
2019-03-31T02:43:16.742Z,10.25
2019-03-31T02:44:49.382Z,10.43
2019-03-31T02:46:22.135Z,11.33
2019-03-31T02:47:54.932Z,11.85
2019-03-31T02:49:27.607Z,12.47
2019-03-31T02:51:00.503Z,10.70
2019-03-31T02:52:33.385Z,12.03
2019-03-31T02:54:06.092Z,13.00
2019-03-31T02:55:38.878Z,12.65
2019-03-31T02:57:11.925Z,12.53
2019-03-31T02:58:45.269Z,11.35
2019-03-31T03:00:17.919Z,12.37
2019-03-31T03:01:51.391Z,11.78
2019-03-31T03:03:25.118Z,10.72
2019-03-31T03:05:18.028Z,10.78
2019-03-31T03:06:38.069Z,14.23
2019-03-31T03:08:13.617Z,12.40
2019-03-31T03:09:48.279Z,11.75
2019-03-31T03:11:21.719Z,11.93
2019-03-31T03:12:58.543Z,11.43
2019-03-31T03:14:36.250Z,10.90
2019-03-31T03:16:19.385Z,11.18
2019-03-31T03:17:52.176Z,12.25
2019-03-31T03:19:24.814Z,12.70
2019-03-31T03:20:57.465Z,13.43
2019-03-31T03:22:30.185Z,12.35
2019-03-31T03:24:02.975Z,11.75
2019-03-31T03:25:36.317Z,14.23
2019-03-31T03:27:09.133Z,13.15
2019-03-31T03:28:42.375Z,12.20
2019-03-31T03:30:15.356Z,11.40
2019-03-31T03:31:48.225Z,11.90
2019-03-31T03:33:21.174Z,12.78
2019-03-31T03:34:53.873Z,13.53
2019-03-31T03:36:26.764Z,13.55
2019-03-31T03:37:59.423Z,11.55
2019-03-31T03:39:32.274Z,11.45
2019-03-31T03:41:05.096Z,13.50
2019-03-31T03:42:37.794Z,11.65
2019-03-31T03:44:10.452Z,14.68
2019-03-31T03:45:43.307Z,11.68
2019-03-31T03:47:16.000Z,11.25
2019-03-31T03:48:48.713Z,12.00
2019-03-31T03:50:21.442Z,13.90
2019-03-31T03:51:54.243Z,12.98
2019-03-31T03:53:27.060Z,12.30
2019-03-31T03:54:59.732Z,12.05
2019-03-31T03:56:32.519Z,11.63
2019-03-31T03:58:05.317Z,12.82
2019-03-31T03:59:38.123Z,12.78
2019-03-31T04:01:21.983Z,15.38
2019-03-31T04:02:54.824Z,14.80
2019-03-31T04:04:27.629Z,13.40
2019-03-31T04:06:00.432Z,13.40
2019-03-31T04:07:33.273Z,15.58
2019-03-31T04:09:06.721Z,13.75
2019-03-31T04:11:23.705Z,13.35
2019-03-31T04:12:56.605Z,15.90
2019-03-31T04:14:29.405Z,14.70
2019-03-31T04:16:02.216Z,13.62
2019-03-31T04:17:35.175Z,12.75
2019-03-31T04:19:08.639Z,12.20
2019-03-31T04:20:41.405Z,13.50
2019-03-31T04:22:14.203Z,12.95
2019-03-31T04:23:46.967Z,12.40
2019-03-31T04:25:19.732Z,14.50
2019-03-31T04:26:52.706Z,13.32
2019-03-31T04:28:25.580Z,12.53
2019-03-31T04:29:58.249Z,12.05
2019-03-31T04:31:31.028Z,12.95
2019-03-31T04:33:03.785Z,13.25
2019-03-31T04:34:36.637Z,14.10
2019-03-31T04:36:09.412Z,11.73
2019-03-31T04:37:42.248Z,14.07
2019-03-31T04:39:15.143Z,12.37
2019-03-31T04:40:47.786Z,13.68
2019-03-31T04:42:20.619Z,14.75
2019-03-31T04:43:53.449Z,13.28
2019-03-31T04:45:26.228Z,12.90
2019-03-31T04:46:58.978Z,14.43
2019-03-31T04:48:31.806Z,12.93
2019-03-31T04:50:04.666Z,12.75
2019-03-31T04:51:37.413Z,13.08
2019-03-31T04:53:10.235Z,13.08
2019-03-31T04:54:43.034Z,12.43
2019-03-31T04:56:15.717Z,13.83
2019-03-31T04:57:48.542Z,13.40
2019-03-31T04:59:21.383Z,12.65
2019-03-31T05:00:54.258Z,13.95
2019-03-31T05:02:27.452Z,13.45
2019-03-31T05:04:04.948Z,12.20
2019-03-31T05:05:35.065Z,14.85
2019-03-31T05:07:07.834Z,13.30
2019-03-31T05:08:40.549Z,14.63
2019-03-31T05:10:13.403Z,15.10
2019-03-31T05:11:46.207Z,15.13
2019-03-31T05:13:18.878Z,15.35
2019-03-31T05:14:51.519Z,13.95
2019-03-31T05:16:24.325Z,14.05
2019-03-31T05:17:57.170Z,13.98
2019-03-31T05:19:29.902Z,15.90
2019-03-31T05:21:02.770Z,15.88
2019-03-31T05:22:35.578Z,15.00
2019-03-31T05:24:08.446Z,11.73
2019-03-31T05:25:41.337Z,14.15
2019-03-31T05:27:14.219Z,13.05
2019-03-31T05:28:47.019Z,14.45
2019-03-31T05:30:19.840Z,15.50
2019-03-31T05:31:52.667Z,12.58
2019-03-31T05:33:25.497Z,12.00
2019-03-31T05:34:58.235Z,12.78
2019-03-31T05:36:30.957Z,13.38
2019-03-31T05:38:03.801Z,12.63
2019-03-31T05:39:36.626Z,13.55
2019-03-31T05:41:09.449Z,14.07
2019-03-31T05:42:42.248Z,11.83
2019-03-31T05:44:15.077Z,13.32
2019-03-31T05:45:47.833Z,12.07
2019-03-31T05:47:20.655Z,14.40
2019-03-31T05:48:53.399Z,11.85
2019-03-31T05:50:26.029Z,15.38
2019-03-31T05:51:58.853Z,11.53
2019-03-31T05:53:31.682Z,15.32
2019-03-31T05:55:04.550Z,11.75
2019-03-31T05:56:37.334Z,12.85
2019-03-31T05:58:09.978Z,14.05
2019-03-31T05:59:42.793Z,12.37
2019-03-31T06:01:15.482Z,13.80
2019-03-31T06:02:48.260Z,12.85
2019-03-31T06:04:32.593Z,14.85
2019-03-31T06:05:55.718Z,12.47
2019-03-31T06:07:28.478Z,13.60
2019-03-31T06:09:01.211Z,11.70
2019-03-31T06:10:33.998Z,15.03
2019-03-31T06:12:06.820Z,12.05
2019-03-31T06:13:39.580Z,12.58
2019-03-31T06:15:12.525Z,12.43
2019-03-31T06:16:45.357Z,12.05
2019-03-31T06:18:18.120Z,13.05
2019-03-31T06:19:50.776Z,13.75
2019-03-31T06:21:23.476Z,14.35
2019-03-31T06:22:56.297Z,11.57
2019-03-31T06:24:29.075Z,12.58
2019-03-31T06:26:01.896Z,11.85
2019-03-31T06:27:34.556Z,12.95
2019-03-31T06:29:07.338Z,11.45
2019-03-31T06:30:40.133Z,13.20
2019-03-31T06:32:12.885Z,11.85
2019-03-31T06:33:45.693Z,12.75
2019-03-31T06:35:18.504Z,12.00
2019-03-31T06:36:51.328Z,13.55
2019-03-31T06:38:24.011Z,13.03
2019-03-31T06:39:56.853Z,11.78
2019-03-31T06:41:29.604Z,13.08
2019-03-31T06:43:02.324Z,14.55
2019-03-31T06:44:38.011Z,12.82
2019-03-31T06:46:09.821Z,12.82
2019-03-31T06:47:42.501Z,14.20
2019-03-31T06:49:15.326Z,12.03
2019-03-31T06:50:48.136Z,13.80
2019-03-31T06:52:20.785Z,15.83
2019-03-31T06:53:53.494Z,13.28
2019-03-31T06:55:26.203Z,14.38
2019-03-31T06:56:59.035Z,12.73
2019-03-31T06:58:31.789Z,14.35
2019-03-31T07:00:06.533Z,12.82
2019-03-31T07:01:39.234Z,14.13
2019-03-31T07:03:12.056Z,13.22
2019-03-31T07:04:44.831Z,15.55
2019-03-31T07:06:17.577Z,15.23
2019-03-31T07:07:50.384Z,13.98
2019-03-31T07:09:23.151Z,12.88
2019-03-31T07:10:55.964Z,13.05
2019-03-31T07:12:28.642Z,12.03
2019-03-31T07:14:01.322Z,13.50
2019-03-31T07:15:34.155Z,11.85
2019-03-31T07:17:06.944Z,12.93
2019-03-31T07:18:39.758Z,13.78
2019-03-31T07:20:14.751Z,13.03
2019-03-31T07:21:47.599Z,13.50
2019-03-31T07:23:20.251Z,13.35
2019-03-31T07:24:53.114Z,13.10
2019-03-31T07:26:26.760Z,16.55
2019-03-31T07:27:59.562Z,12.58
2019-03-31T07:29:32.251Z,11.90
2019-03-31T07:31:05.041Z,13.40
2019-03-31T07:32:41.205Z,12.55
2019-03-31T07:34:14.004Z,14.58
2019-03-31T07:35:46.870Z,12.70
2019-03-31T07:37:19.632Z,14.25
2019-03-31T07:38:52.326Z,12.73
2019-03-31T07:40:25.596Z,12.98
2019-03-31T07:41:58.568Z,12.47
2019-03-31T07:43:31.407Z,13.28
2019-03-31T07:45:04.914Z,15.03
2019-03-31T07:46:37.576Z,12.70
2019-03-31T07:48:10.492Z,12.55
2019-03-31T07:49:43.322Z,17.20
2019-03-31T07:51:16.037Z,13.68
2019-03-31T07:52:48.826Z,13.53
2019-03-31T07:54:21.540Z,14.28
2019-03-31T07:55:54.365Z,13.38
2019-03-31T07:57:27.296Z,13.38
2019-03-31T07:59:00.068Z,13.38
2019-03-31T08:00:32.889Z,13.85
2019-03-31T08:02:05.580Z,13.50
2019-03-31T08:03:38.385Z,13.32
2019-03-31T08:05:11.193Z,15.10
2019-03-31T08:06:44.029Z,13.22
2019-03-31T08:08:16.867Z,13.32
2019-03-31T08:09:49.569Z,13.90
2019-03-31T08:11:22.261Z,12.98
2019-03-31T08:12:55.078Z,15.43
2019-03-31T08:14:27.903Z,13.40
2019-03-31T08:16:00.707Z,16.45
2019-03-31T08:17:33.429Z,14.33
2019-03-31T08:19:06.129Z,14.65
2019-03-31T08:20:38.925Z,15.03
2019-03-31T08:22:11.740Z,15.03
2019-03-31T08:23:44.458Z,14.18
2019-03-31T08:25:17.610Z,13.60
2019-03-31T08:26:50.282Z,14.85
2019-03-31T08:28:24.578Z,15.23
2019-03-31T08:30:00.780Z,13.40
2019-03-31T08:31:32.230Z,16.57
2019-03-31T08:33:05.128Z,15.23
2019-03-31T08:34:38.031Z,13.57
2019-03-31T08:36:10.824Z,14.40
2019-03-31T08:37:43.705Z,14.23
2019-03-31T08:39:16.477Z,18.20
2019-03-31T08:40:49.298Z,14.67
2019-03-31T08:42:22.105Z,14.27
2019-03-31T08:43:54.784Z,15.37
2019-03-31T08:45:32.633Z,15.57
2019-03-31T08:47:06.380Z,14.47
2019-03-31T08:48:39.206Z,14.03
2019-03-31T08:50:12.599Z,15.83
2019-03-31T08:51:45.461Z,14.53
2019-03-31T08:53:18.307Z,15.47
2019-03-31T08:54:51.190Z,18.27
2019-03-31T08:56:23.893Z,15.07
2019-03-31T08:57:56.625Z,15.90
2019-03-31T08:59:33.862Z,17.60
2019-03-31T09:01:14.649Z,17.37
2019-03-31T09:02:47.492Z,16.00
2019-03-31T09:04:22.047Z,16.10
2019-03-31T09:06:01.704Z,17.53
2019-03-31T09:07:29.524Z,17.17
2019-03-31T09:09:03.729Z,20.03
2019-03-31T09:10:45.933Z,20.47
2019-03-31T09:12:18.687Z,19.30
2019-03-31T09:13:51.512Z,17.03
2019-03-31T09:15:24.358Z,19.57
2019-03-31T09:16:57.149Z,17.93
2019-03-31T09:18:29.925Z,18.57
2019-03-31T09:20:03.235Z,20.23
2019-03-31T09:21:36.066Z,26.17
2019-03-31T09:23:08.817Z,23.33
2019-03-31T09:24:41.622Z,24.30
2019-03-31T09:26:14.466Z,20.30
2019-03-31T09:27:47.174Z,22.30
2019-03-31T09:29:19.945Z,22.37
2019-03-31T09:30:52.791Z,22.70
2019-03-31T09:32:25.564Z,24.50
2019-03-31T09:33:58.431Z,22.47
2019-03-31T09:35:31.300Z,21.20
2019-03-31T09:37:04.074Z,23.90
2019-03-31T09:38:36.913Z,21.80
2019-03-31T09:40:10.445Z,23.50
2019-03-31T09:41:43.290Z,22.67
2019-03-31T09:43:16.105Z,22.40
2019-03-31T09:44:48.784Z,23.27
2019-03-31T09:46:21.616Z,25.13
2019-03-31T09:47:54.450Z,22.47
2019-03-31T09:49:27.313Z,21.53
2019-03-31T09:51:00.129Z,22.17
2019-03-31T09:52:32.966Z,20.13
2019-03-31T09:54:05.827Z,18.93
2019-03-31T09:55:38.730Z,22.73
2019-03-31T09:57:11.511Z,21.03
2019-03-31T09:58:44.400Z,22.23
2019-03-31T10:00:18.993Z,22.13
2019-03-31T10:01:51.814Z,21.83
2019-03-31T10:03:24.718Z,21.47
2019-03-31T10:04:57.526Z,22.80
2019-03-31T10:06:30.958Z,20.33
2019-03-31T10:08:03.839Z,21.47
2019-03-31T10:09:37.104Z,20.87
2019-03-31T10:11:09.945Z,23.83
2019-03-31T10:12:42.712Z,22.73
2019-03-31T10:14:15.545Z,24.13
2019-03-31T10:15:48.588Z,22.60
2019-03-31T10:17:21.878Z,21.93
2019-03-31T10:18:54.878Z,23.77
2019-03-31T10:20:31.146Z,20.97
2019-03-31T10:22:05.235Z,24.90
2019-03-31T10:23:38.272Z,22.53
2019-03-31T10:25:13.409Z,21.77
2019-03-31T10:26:48.438Z,23.03
2019-03-31T10:28:21.706Z,23.70
2019-03-31T10:29:54.753Z,21.17
2019-03-31T10:31:27.601Z,21.40
2019-03-31T10:33:00.552Z,21.80
2019-03-31T10:34:33.205Z,21.20
2019-03-31T10:36:06.000Z,22.30
2019-03-31T10:37:38.817Z,21.33
2019-03-31T10:39:11.645Z,21.90
2019-03-31T10:40:44.540Z,20.50
2019-03-31T10:42:17.296Z,21.97
2019-03-31T10:43:50.115Z,23.33
2019-03-31T10:45:22.970Z,22.47
2019-03-31T10:46:58.505Z,23.90
2019-03-31T10:48:30.644Z,21.83
2019-03-31T10:50:04.534Z,19.93
2019-03-31T10:51:37.247Z,22.13
2019-03-31T10:53:17.475Z,20.93
2019-03-31T10:54:50.315Z,22.37
2019-03-31T10:56:23.132Z,23.03
2019-03-31T10:57:56.012Z,21.07
2019-03-31T10:59:28.928Z,22.17
2019-03-31T11:01:01.829Z,20.00
2019-03-31T11:02:34.691Z,19.23
2019-03-31T11:04:07.491Z,19.27
2019-03-31T11:05:40.327Z,19.23
2019-03-31T11:07:13.166Z,19.50
2019-03-31T11:08:47.641Z,20.23
2019-03-31T11:10:20.421Z,17.87
2019-03-31T11:11:53.307Z,20.23
2019-03-31T11:13:26.114Z,20.63
2019-03-31T11:14:58.966Z,16.27
2019-03-31T11:16:31.627Z,16.27
2019-03-31T11:18:04.446Z,17.43
2019-03-31T11:19:37.261Z,20.93
2019-03-31T11:21:16.416Z,20.07
2019-03-31T11:23:08.732Z,17.77
2019-03-31T11:24:41.395Z,18.93
2019-03-31T11:26:14.211Z,20.90
2019-03-31T11:27:46.893Z,23.00
2019-03-31T11:29:19.713Z,18.87
2019-03-31T11:30:52.599Z,17.10
2019-03-31T11:32:25.400Z,14.90
2019-03-31T11:33:58.193Z,15.07
2019-03-31T11:35:30.892Z,16.23
2019-03-31T11:37:13.540Z,20.17
2019-03-31T11:38:38.357Z,16.47
2019-03-31T11:40:11.292Z,18.83
2019-03-31T11:41:44.027Z,21.20
2019-03-31T11:43:16.844Z,20.53
2019-03-31T11:44:49.609Z,19.33
2019-03-31T11:46:22.415Z,19.20
2019-03-31T11:47:55.237Z,18.13
2019-03-31T11:49:28.059Z,19.80
2019-03-31T11:51:00.849Z,21.77
2019-03-31T11:52:33.530Z,17.67
2019-03-31T11:54:06.412Z,18.20
2019-03-31T11:55:39.226Z,20.37
2019-03-31T11:57:11.943Z,18.13
2019-03-31T11:58:44.802Z,19.53
2019-03-31T12:00:18.826Z,17.30
2019-03-31T12:01:51.633Z,16.77
2019-03-31T12:03:24.476Z,16.73
2019-03-31T12:04:57.289Z,19.87
2019-03-31T12:06:30.058Z,16.10
2019-03-31T12:08:02.884Z,15.50
2019-03-31T12:09:35.683Z,12.70
2019-03-31T12:11:08.489Z,16.67
2019-03-31T12:12:41.272Z,14.90
2019-03-31T12:14:59.769Z,21.13
2019-03-31T12:16:48.681Z,18.27
2019-03-31T12:18:21.457Z,17.47
2019-03-31T12:19:54.362Z,15.87
2019-03-31T12:21:27.293Z,14.20
2019-03-31T12:23:00.143Z,14.67
2019-03-31T12:24:32.912Z,13.83
2019-03-31T12:26:05.835Z,18.83
2019-03-31T12:27:42.849Z,16.80
2019-03-31T12:29:15.736Z,17.27
2019-03-31T12:30:48.682Z,16.20
2019-03-31T12:32:21.390Z,15.43
2019-03-31T12:33:54.186Z,15.93
2019-03-31T12:35:27.015Z,14.07
2019-03-31T12:36:59.936Z,17.57
2019-03-31T12:38:32.676Z,15.33
2019-03-31T12:40:05.972Z,17.20
2019-03-31T12:41:38.839Z,16.07
2019-03-31T12:43:13.866Z,17.43
2019-03-31T12:44:46.692Z,16.73
2019-03-31T12:46:19.391Z,15.83
2019-03-31T12:47:52.181Z,17.03
2019-03-31T12:49:25.185Z,15.90
2019-03-31T12:50:57.977Z,18.30
2019-03-31T12:52:30.719Z,17.60
2019-03-31T12:54:03.401Z,16.03
2019-03-31T12:55:36.151Z,15.23
2019-03-31T12:57:09.012Z,16.03
2019-03-31T12:58:41.815Z,15.17
2019-03-31T13:00:14.678Z,13.37
2019-03-31T13:01:49.914Z,16.93
2019-03-31T13:03:22.701Z,18.63
2019-03-31T13:04:55.505Z,17.83
2019-03-31T13:06:28.183Z,16.03
2019-03-31T13:08:03.412Z,16.43
2019-03-31T13:09:36.281Z,15.63
2019-03-31T13:11:09.127Z,15.23
2019-03-31T13:12:42.022Z,15.33
2019-03-31T13:14:14.845Z,15.97
2019-03-31T13:15:47.599Z,16.83
2019-03-31T13:17:20.294Z,15.60
2019-03-31T13:18:53.327Z,16.33
2019-03-31T13:20:26.181Z,17.57
2019-03-31T13:22:01.318Z,15.23
2019-03-31T13:23:34.153Z,16.17
2019-03-31T13:25:06.971Z,19.23
2019-03-31T13:26:39.771Z,18.07
2019-03-31T13:28:12.458Z,17.47
2019-03-31T13:29:45.235Z,15.93
2019-03-31T13:31:18.072Z,16.63
2019-03-31T13:32:50.786Z,15.90
2019-03-31T13:34:23.666Z,15.30
2019-03-31T13:35:56.518Z,14.63
2019-03-31T13:37:29.327Z,14.53
2019-03-31T13:39:02.213Z,13.90
2019-03-31T13:40:35.251Z,15.17
2019-03-31T13:42:07.984Z,16.27
2019-03-31T13:43:40.984Z,14.13
2019-03-31T13:45:14.142Z,13.93
2019-03-31T13:46:46.998Z,14.27
2019-03-31T13:48:19.842Z,14.90
2019-03-31T13:49:52.733Z,14.77
2019-03-31T13:51:25.618Z,14.37
2019-03-31T13:52:58.335Z,14.77
2019-03-31T13:54:31.175Z,15.93
2019-03-31T13:56:04.029Z,13.57
2019-03-31T13:57:38.018Z,14.90
2019-03-31T13:59:11.675Z,14.50
2019-03-31T14:00:44.542Z,13.90
2019-03-31T14:02:17.301Z,15.27
2019-03-31T14:03:50.027Z,15.57
2019-03-31T14:05:22.787Z,15.60
2019-03-31T14:06:55.617Z,13.30
2019-03-31T14:08:28.427Z,13.33
2019-03-31T14:10:01.120Z,14.60
2019-03-31T14:11:34.042Z,13.13
2019-03-31T14:13:06.857Z,12.50
2019-03-31T14:14:39.721Z,15.50
2019-03-31T14:16:12.421Z,14.57
2019-03-31T14:17:45.282Z,14.00
2019-03-31T14:19:18.100Z,15.77
2019-03-31T14:20:50.961Z,13.70
2019-03-31T14:22:23.801Z,14.60
2019-03-31T14:23:56.709Z,14.27
2019-03-31T14:25:29.437Z,13.40
2019-03-31T14:27:02.109Z,13.80
2019-03-31T14:28:34.968Z,14.43
2019-03-31T14:30:08.335Z,14.73
2019-03-31T14:31:41.185Z,14.27
2019-03-31T14:33:13.997Z,15.40
2019-03-31T14:34:46.838Z,15.03
2019-03-31T14:36:19.645Z,14.97
2019-03-31T14:37:52.377Z,13.40
2019-03-31T14:39:25.069Z,13.60
2019-03-31T14:40:58.015Z,14.13
2019-03-31T14:42:30.838Z,13.67
2019-03-31T14:44:04.793Z,13.90
2019-03-31T14:45:37.880Z,13.97
2019-03-31T14:47:10.702Z,12.97
2019-03-31T14:48:43.514Z,12.50
2019-03-31T14:50:28.987Z,12.97
2019-03-31T14:52:01.798Z,13.67
2019-03-31T14:53:34.671Z,13.27
2019-03-31T14:55:07.418Z,13.93
2019-03-31T14:56:40.222Z,12.70
2019-03-31T14:58:13.133Z,12.93
2019-03-31T14:59:46.014Z,13.93
2019-03-31T15:01:21.246Z,13.83
2019-03-31T15:02:53.625Z,13.00
2019-03-31T15:04:26.491Z,12.63
2019-03-31T15:05:59.207Z,14.03
2019-03-31T15:07:32.025Z,15.47
2019-03-31T15:09:06.983Z,15.20
2019-03-31T15:10:39.871Z,13.50
2019-03-31T15:12:12.744Z,12.40
2019-03-31T15:13:45.517Z,13.80
2019-03-31T15:15:18.380Z,16.87
2019-03-31T15:16:51.212Z,15.93
2019-03-31T15:18:23.988Z,15.77
2019-03-31T15:19:56.678Z,19.20
2019-03-31T15:21:29.534Z,16.17
2019-03-31T15:23:02.424Z,15.93
2019-03-31T15:24:35.174Z,17.73
2019-03-31T15:26:08.039Z,16.97
2019-03-31T15:27:40.840Z,18.07
2019-03-31T15:29:13.643Z,17.60
2019-03-31T15:30:46.632Z,17.60
2019-03-31T15:32:19.512Z,19.73
2019-03-31T15:33:52.306Z,24.30
2019-03-31T15:35:26.381Z,24.77
2019-03-31T15:36:59.575Z,27.57
2019-03-31T15:38:32.384Z,25.30
2019-03-31T15:40:06.100Z,27.83
2019-03-31T15:41:38.984Z,25.47
2019-03-31T15:43:14.847Z,26.50
2019-03-31T15:44:50.383Z,26.33
2019-03-31T15:46:24.807Z,25.90
2019-03-31T15:47:57.774Z,28.53
2019-03-31T15:49:30.589Z,27.83
2019-03-31T15:51:03.247Z,30.83
2019-03-31T15:52:36.170Z,30.07
2019-03-31T15:54:09.103Z,33.50
2019-03-31T15:55:41.906Z,35.37
2019-03-31T15:57:14.704Z,33.97
2019-03-31T15:58:47.572Z,34.40
2019-03-31T16:00:20.901Z,34.77
2019-03-31T16:01:53.708Z,36.37
2019-03-31T16:03:26.593Z,30.83
2019-03-31T16:04:59.376Z,29.73
2019-03-31T16:06:32.175Z,33.40
2019-03-31T16:08:04.802Z,27.73
2019-03-31T16:09:37.099Z,29.32
2019-03-31T16:11:09.407Z,29.23
2019-03-31T16:12:41.716Z,33.57
2019-03-31T16:14:13.946Z,31.23
2019-03-31T16:15:46.198Z,33.53
2019-03-31T16:17:18.632Z,26.83
2019-03-31T16:18:50.878Z,29.50
2019-03-31T16:20:23.202Z,28.32
2019-03-31T16:21:55.479Z,26.93
2019-03-31T16:23:27.745Z,26.10
2019-03-31T16:25:00.695Z,28.92
2019-03-31T16:26:33.001Z,27.57
2019-03-31T16:28:05.379Z,28.02
2019-03-31T16:29:37.561Z,27.00
2019-03-31T16:31:09.785Z,28.17
2019-03-31T16:32:42.098Z,31.37
2019-03-31T16:34:14.273Z,32.77
2019-03-31T16:35:46.436Z,37.00
2019-03-31T16:37:18.671Z,39.40
2019-03-31T16:38:50.905Z,42.05
2019-03-31T16:40:23.029Z,44.07
2019-03-31T16:41:55.365Z,45.98
2019-03-31T16:43:27.508Z,48.43
2019-03-31T16:44:59.728Z,45.25
2019-03-31T16:46:31.877Z,44.88
2019-03-31T16:48:04.193Z,43.73
2019-03-31T16:49:36.298Z,44.80
2019-03-31T16:51:08.632Z,42.88
2019-03-31T16:52:40.967Z,45.43
2019-03-31T16:54:13.198Z,45.78
2019-03-31T16:55:45.497Z,44.53
2019-03-31T16:57:17.763Z,46.85
2019-03-31T16:58:50.016Z,42.08
2019-03-31T17:00:22.258Z,44.15
2019-03-31T17:01:54.576Z,49.18
2019-03-31T17:03:26.893Z,49.97
2019-03-31T17:04:59.285Z,54.55
2019-03-31T17:06:31.584Z,49.77
2019-03-31T17:08:03.840Z,47.08
2019-03-31T17:09:36.170Z,48.75
2019-03-31T17:11:08.417Z,50.17
2019-03-31T17:12:40.779Z,50.08
2019-03-31T17:14:13.065Z,48.92
2019-03-31T17:15:45.328Z,49.73
2019-03-31T17:17:17.478Z,49.00
2019-03-31T17:18:49.753Z,51.18
2019-03-31T17:20:21.997Z,50.83
2019-03-31T17:21:54.286Z,53.48
2019-03-31T17:23:26.588Z,49.05
2019-03-31T17:24:58.867Z,49.65
2019-03-31T17:26:31.160Z,50.67
2019-03-31T17:28:03.415Z,52.55
2019-03-31T17:29:35.604Z,50.20
2019-03-31T17:31:07.773Z,56.77
2019-03-31T17:32:40.086Z,50.12
2019-03-31T17:34:12.398Z,49.45
2019-03-31T17:35:44.647Z,47.88
2019-03-31T17:37:16.951Z,49.20
2019-03-31T17:38:49.214Z,50.88
2019-03-31T17:40:21.325Z,51.10
2019-03-31T17:41:53.602Z,47.70
2019-03-31T17:43:25.867Z,51.00
2019-03-31T17:44:58.141Z,49.77
2019-03-31T17:46:30.365Z,48.33
2019-03-31T17:48:02.549Z,47.78
2019-03-31T17:49:34.759Z,45.33
2019-03-31T17:51:07.083Z,46.95
2019-03-31T17:52:39.344Z,46.08
2019-03-31T17:54:11.581Z,41.90
2019-03-31T17:55:43.775Z,44.25
2019-03-31T17:57:15.996Z,42.85
2019-03-31T17:58:48.270Z,44.63
2019-03-31T18:00:21.774Z,44.33
2019-03-31T18:01:54.129Z,43.10
2019-03-31T18:03:26.401Z,42.73
2019-03-31T18:04:58.672Z,46.18
2019-03-31T18:06:30.991Z,41.05
2019-03-31T18:08:03.286Z,40.92
2019-03-31T18:09:35.559Z,39.90
2019-03-31T18:11:07.781Z,40.83
2019-03-31T18:12:40.071Z,48.17
2019-03-31T18:14:12.373Z,40.85
2019-03-31T18:15:44.670Z,39.95
2019-03-31T18:17:16.945Z,39.15
2019-03-31T18:18:49.342Z,39.53
2019-03-31T18:20:21.644Z,39.85
2019-03-31T18:21:53.925Z,38.78
2019-03-31T18:23:26.202Z,38.80
2019-03-31T18:24:58.459Z,37.10
2019-03-31T18:26:30.704Z,38.17
2019-03-31T18:28:03.008Z,40.67
2019-03-31T18:29:35.171Z,37.70
2019-03-31T18:31:07.505Z,38.17
2019-03-31T18:32:39.852Z,38.70
2019-03-31T18:34:12.080Z,38.50
2019-03-31T18:35:44.380Z,36.50
2019-03-31T18:37:16.661Z,34.20
2019-03-31T18:38:48.927Z,37.48
2019-03-31T18:40:34.262Z,33.18
2019-03-31T18:41:55.225Z,32.63
2019-03-31T18:43:27.578Z,34.35
2019-03-31T18:44:59.980Z,31.90
2019-03-31T18:46:32.265Z,32.13
2019-03-31T18:48:04.534Z,29.37
2019-03-31T18:49:36.826Z,29.70
2019-03-31T18:51:09.176Z,27.55
2019-03-31T18:52:41.494Z,27.95
2019-03-31T18:54:36.101Z,29.18
2019-03-31T18:56:33.728Z,30.23
2019-03-31T18:58:27.043Z,27.65
2019-03-31T19:00:24.594Z,30.12
2019-03-31T19:02:24.999Z,28.32
2019-03-31T19:04:19.695Z,30.10
2019-03-31T19:06:10.304Z,27.93
2019-03-31T19:07:54.975Z,29.98
2019-03-31T19:09:58.613Z,29.30
2019-03-31T19:11:53.210Z,25.80
2019-03-31T19:13:35.933Z,25.82
2019-03-31T19:15:27.675Z,25.10
2019-03-31T19:17:28.777Z,25.45
2019-03-31T19:19:17.835Z,26.48
2019-03-31T19:21:10.918Z,25.62
2019-03-31T19:22:52.118Z,24.50
2019-03-31T19:24:34.651Z,25.57
2019-03-31T19:26:26.436Z,28.00
2019-03-31T19:28:10.834Z,26.85
2019-03-31T19:29:54.956Z,24.82
2019-03-31T19:31:59.001Z,25.37
2019-03-31T19:33:50.814Z,24.82
2019-03-31T19:35:41.190Z,26.35
2019-03-31T19:37:35.506Z,26.70
2019-03-31T19:39:26.197Z,22.05
2019-03-31T19:41:17.915Z,22.45
2019-03-31T19:43:12.700Z,24.65
2019-03-31T19:45:03.149Z,24.07
2019-03-31T19:46:44.323Z,23.52
2019-03-31T19:48:41.946Z,23.27
2019-03-31T19:50:31.694Z,25.12
2019-03-31T19:52:23.456Z,23.05
2019-03-31T19:54:07.400Z,24.18
2019-03-31T19:55:46.453Z,22.40
2019-03-31T19:57:40.813Z,23.92
2019-03-31T19:59:30.597Z,23.73
2019-03-31T20:01:15.466Z,21.95
2019-03-31T20:03:06.204Z,22.67
2019-03-31T20:05:01.740Z,21.95
2019-03-31T20:06:42.534Z,21.68
2019-03-31T20:08:34.290Z,22.48
2019-03-31T20:10:34.241Z,22.02
2019-03-31T20:12:27.948Z,25.08
2019-03-31T20:14:18.268Z,20.77
2019-03-31T20:16:19.279Z,21.40